createdAt,value
2019-05-29T00:01:10.392Z,1.90
2019-05-29T00:03:35.076Z,2.00
2019-05-29T00:06:02.300Z,1.83
2019-05-29T00:08:29.402Z,1.90
2019-05-29T00:10:56.030Z,2.73
2019-05-29T00:13:23.343Z,1.93
2019-05-29T00:15:51.079Z,2.00
2019-05-29T00:18:19.057Z,2.53
2019-05-29T00:20:46.843Z,2.13
2019-05-29T00:23:14.599Z,2.00
2019-05-29T00:25:41.442Z,2.30
2019-05-29T00:28:08.530Z,2.03
2019-05-29T00:30:35.638Z,2.40
2019-05-29T00:33:02.404Z,2.03
2019-05-29T00:35:30.152Z,1.93
2019-05-29T00:37:57.643Z,2.23
2019-05-29T00:40:24.372Z,2.17
2019-05-29T00:42:52.215Z,2.17
2019-05-29T00:45:19.063Z,2.13
2019-05-29T00:47:45.702Z,2.13
2019-05-29T00:50:12.700Z,1.80
2019-05-29T00:52:39.410Z,2.27
2019-05-29T00:55:08.569Z,2.50
2019-05-29T00:57:35.744Z,2.30
2019-05-29T01:00:04.298Z,1.93
2019-05-29T01:02:31.758Z,2.20
2019-05-29T01:04:58.403Z,2.30
2019-05-29T01:07:25.365Z,2.37
2019-05-29T01:09:52.591Z,2.67
2019-05-29T01:12:19.254Z,1.70
2019-05-29T01:14:50.502Z,3.43
2019-05-29T01:17:17.674Z,2.73
2019-05-29T01:19:44.586Z,2.23
2019-05-29T01:22:12.265Z,2.40
2019-05-29T01:24:39.108Z,2.73
2019-05-29T01:27:05.744Z,2.67
2019-05-29T01:29:32.459Z,2.00
2019-05-29T01:31:59.403Z,2.70
2019-05-29T01:34:27.079Z,1.77
2019-05-29T01:36:54.803Z,1.87
2019-05-29T01:39:23.412Z,2.47
2019-05-29T01:41:50.705Z,2.10
2019-05-29T01:44:17.915Z,2.00
2019-05-29T01:46:44.884Z,2.27
2019-05-29T01:49:11.800Z,2.20
2019-05-29T01:51:38.434Z,2.57
2019-05-29T01:54:05.079Z,2.17
2019-05-29T01:56:32.063Z,2.27
2019-05-29T01:58:58.725Z,1.83
2019-05-29T02:01:25.478Z,2.03
2019-05-29T02:03:52.472Z,1.73
2019-05-29T02:06:19.997Z,2.00
2019-05-29T02:08:46.750Z,1.70
2019-05-29T02:11:14.976Z,2.40
2019-05-29T02:13:42.271Z,2.20
2019-05-29T02:16:10.162Z,2.13
2019-05-29T02:18:37.110Z,2.80
2019-05-29T02:21:05.350Z,1.90
2019-05-29T02:23:31.974Z,2.50
2019-05-29T02:25:58.854Z,2.47
2019-05-29T02:28:26.870Z,2.90
2019-05-29T02:30:53.571Z,2.83
2019-05-29T02:33:21.914Z,2.33
2019-05-29T02:35:49.487Z,2.10
2019-05-29T02:38:18.437Z,2.50
2019-05-29T02:40:45.527Z,2.33
2019-05-29T02:43:13.291Z,2.87
2019-05-29T02:45:53.621Z,2.00
2019-05-29T02:48:09.867Z,2.58
2019-05-29T02:50:37.509Z,2.30
2019-05-29T02:53:04.127Z,2.67
2019-05-29T02:55:31.140Z,2.40
2019-05-29T02:57:57.851Z,2.40
2019-05-29T03:00:40.334Z,2.80
2019-05-29T03:03:07.307Z,2.40
2019-05-29T03:05:34.541Z,2.60
2019-05-29T03:08:02.862Z,2.73
2019-05-29T03:10:30.811Z,2.50
2019-05-29T03:12:57.671Z,2.40
2019-05-29T03:15:25.604Z,3.60
2019-05-29T03:17:52.443Z,2.50
2019-05-29T03:20:19.090Z,2.53
2019-05-29T03:22:46.056Z,2.40
2019-05-29T03:25:12.808Z,2.00
2019-05-29T03:27:39.799Z,2.57
2019-05-29T03:30:06.448Z,2.70
2019-05-29T03:32:41.651Z,2.73
2019-05-29T03:35:03.778Z,2.50
2019-05-29T03:37:32.436Z,2.63
2019-05-29T03:39:59.443Z,2.17
2019-05-29T03:42:26.466Z,2.70
2019-05-29T03:44:53.658Z,2.37
2019-05-29T03:47:20.292Z,2.67
2019-05-29T03:49:48.474Z,2.80
2019-05-29T03:52:15.199Z,2.43
2019-05-29T03:54:41.965Z,2.83
2019-05-29T03:57:08.908Z,2.77
2019-05-29T03:59:37.337Z,2.10
2019-05-29T04:02:04.264Z,2.30
2019-05-29T04:04:31.434Z,2.60
2019-05-29T04:07:01.017Z,1.90
2019-05-29T04:09:29.360Z,2.47
2019-05-29T04:11:56.221Z,2.40
2019-05-29T04:14:24.098Z,2.50
2019-05-29T04:16:59.855Z,2.00
2019-05-29T04:19:20.725Z,2.17
2019-05-29T04:21:50.927Z,1.87
2019-05-29T04:24:19.099Z,2.13
2019-05-29T04:26:45.939Z,2.10
2019-05-29T04:29:13.150Z,2.17
2019-05-29T04:31:39.788Z,2.73
2019-05-29T04:34:07.086Z,2.03
2019-05-29T04:36:36.908Z,2.20
2019-05-29T04:39:05.781Z,2.10
2019-05-29T04:41:34.709Z,2.30
2019-05-29T04:44:01.956Z,1.80
2019-05-29T04:46:30.034Z,1.98
2019-05-29T04:49:00.216Z,1.67
2019-05-29T04:51:26.855Z,1.93
2019-05-29T04:53:53.820Z,2.00
2019-05-29T04:56:20.892Z,2.00
2019-05-29T04:58:47.914Z,1.93
2019-05-29T05:01:14.567Z,2.10
2019-05-29T05:03:41.932Z,1.60
2019-05-29T05:06:08.568Z,1.90
2019-05-29T05:08:37.455Z,2.10
2019-05-29T05:11:04.696Z,2.10
2019-05-29T05:13:31.508Z,2.43
2019-05-29T05:16:00.303Z,2.00
2019-05-29T05:18:28.312Z,2.20
2019-05-29T05:20:55.329Z,1.80
2019-05-29T05:23:22.971Z,2.30
2019-05-29T05:25:50.168Z,2.00
2019-05-29T05:28:16.819Z,2.00
2019-05-29T05:30:43.809Z,1.97
2019-05-29T05:33:10.955Z,1.60
2019-05-29T05:35:38.814Z,1.47
2019-05-29T05:38:05.588Z,1.30
2019-05-29T05:40:37.023Z,1.80
2019-05-29T05:43:03.267Z,1.73
2019-05-29T05:45:32.887Z,1.20
2019-05-29T05:48:00.048Z,1.27
2019-05-29T05:50:26.964Z,1.87
2019-05-29T05:52:53.639Z,1.00
2019-05-29T05:55:20.760Z,1.13
2019-05-29T05:57:48.427Z,1.77
2019-05-29T06:00:16.872Z,1.27
2019-05-29T06:02:43.764Z,1.20
2019-05-29T06:05:10.708Z,0.97
2019-05-29T06:07:38.219Z,1.73
2019-05-29T06:10:05.118Z,1.63
2019-05-29T06:12:32.233Z,1.30
2019-05-29T06:14:59.107Z,1.27
2019-05-29T06:17:25.780Z,1.20
2019-05-29T06:19:52.775Z,1.30
2019-05-29T06:22:20.715Z,1.23
2019-05-29T06:24:48.037Z,0.80
2019-05-29T06:27:15.306Z,0.80
2019-05-29T06:29:43.807Z,1.30
2019-05-29T06:32:11.113Z,1.43
2019-05-29T06:34:37.862Z,1.17
2019-05-29T06:37:05.681Z,1.20
2019-05-29T06:39:33.467Z,1.23
2019-05-29T06:42:00.249Z,1.23
2019-05-29T06:44:26.900Z,1.77
2019-05-29T06:46:54.603Z,1.00
2019-05-29T06:49:22.010Z,1.17
2019-05-29T06:51:48.648Z,1.20
2019-05-29T06:54:15.439Z,1.10
2019-05-29T06:56:43.802Z,0.90
2019-05-29T06:59:11.430Z,1.33
2019-05-29T07:01:39.298Z,0.90
2019-05-29T07:04:11.733Z,1.00
2019-05-29T07:06:36.540Z,1.23
2019-05-29T07:09:05.173Z,1.27
2019-05-29T07:11:33.116Z,2.03
2019-05-29T07:13:59.760Z,1.57
2019-05-29T07:16:43.215Z,1.27
2019-05-29T07:19:24.114Z,1.13
2019-05-29T07:21:25.316Z,1.03
2019-05-29T07:23:52.357Z,1.40
2019-05-29T07:26:19.637Z,1.80
2019-05-29T07:29:08.371Z,1.33
2019-05-29T07:31:15.902Z,1.27
2019-05-29T07:33:43.291Z,0.90
2019-05-29T07:36:10.456Z,1.40
2019-05-29T07:38:37.705Z,1.50
2019-05-29T07:41:04.481Z,1.40
2019-05-29T07:43:31.220Z,1.60
2019-05-29T07:45:59.295Z,0.97
2019-05-29T07:48:25.932Z,1.60
2019-05-29T07:51:06.230Z,1.20
2019-05-29T07:53:21.672Z,1.63
2019-05-29T07:55:48.978Z,1.97
2019-05-29T07:58:15.847Z,2.13
2019-05-29T08:01:05.345Z,1.60
2019-05-29T08:03:11.791Z,1.30
2019-05-29T08:05:41.484Z,1.43
2019-05-29T08:08:10.511Z,1.60
2019-05-29T08:10:37.508Z,1.23
2019-05-29T08:13:04.347Z,1.17
2019-05-29T08:15:51.230Z,1.37
2019-05-29T08:18:04.839Z,1.47
2019-05-29T08:20:31.477Z,1.07
2019-05-29T08:23:00.256Z,1.30
2019-05-29T08:25:28.017Z,1.73
2019-05-29T08:27:54.663Z,1.13
2019-05-29T08:30:21.511Z,1.37
2019-05-29T08:32:49.337Z,1.10
2019-05-29T08:35:17.839Z,1.03
2019-05-29T08:37:44.951Z,1.30
2019-05-29T08:40:11.968Z,1.10
2019-05-29T08:42:39.112Z,1.43
2019-05-29T08:45:06.094Z,1.10
2019-05-29T08:47:33.573Z,0.93
2019-05-29T08:50:17.273Z,0.70
2019-05-29T08:52:29.020Z,1.30
2019-05-29T08:54:55.935Z,0.80
2019-05-29T08:57:22.898Z,0.90
2019-05-29T08:59:50.649Z,0.90
2019-05-29T09:02:18.571Z,0.77
2019-05-29T09:04:47.444Z,1.00
2019-05-29T09:07:14.771Z,0.80
2019-05-29T09:09:42.951Z,0.90
2019-05-29T09:12:10.399Z,1.20
2019-05-29T09:14:37.080Z,1.57
2019-05-29T09:17:03.803Z,0.70
2019-05-29T09:19:31.019Z,1.10
2019-05-29T09:21:58.643Z,1.40
2019-05-29T09:24:25.254Z,0.70
2019-05-29T09:26:51.887Z,1.40
2019-05-29T09:29:22.982Z,1.07
2019-05-29T09:31:47.808Z,1.00
2019-05-29T09:34:18.633Z,1.07
2019-05-29T09:36:45.482Z,1.07
2019-05-29T09:39:12.628Z,0.93
2019-05-29T09:41:39.283Z,1.43
2019-05-29T09:44:06.123Z,0.83
2019-05-29T09:46:33.048Z,1.40
2019-05-29T09:49:01.629Z,0.87
2019-05-29T09:51:28.698Z,1.37
2019-05-29T09:53:57.529Z,1.33
2019-05-29T09:56:24.503Z,1.20
2019-05-29T09:58:53.671Z,1.30
2019-05-29T10:01:23.999Z,1.23
2019-05-29T10:03:48.928Z,1.60
2019-05-29T10:06:15.908Z,1.10
2019-05-29T10:08:42.608Z,1.17
2019-05-29T10:11:10.898Z,1.70
2019-05-29T10:13:39.109Z,1.10
2019-05-29T10:16:05.751Z,1.17
2019-05-29T10:18:33.088Z,1.00
2019-05-29T10:21:01.319Z,1.07
2019-05-29T10:23:28.196Z,1.30
2019-05-29T10:25:56.598Z,0.70
2019-05-29T10:28:23.827Z,0.77
2019-05-29T10:30:52.564Z,1.20
2019-05-29T10:33:19.746Z,1.10
2019-05-29T10:35:49.596Z,1.03
2019-05-29T10:38:16.775Z,1.20
2019-05-29T10:40:57.037Z,1.13
2019-05-29T10:43:32.830Z,1.73
2019-05-29T10:45:45.775Z,1.10
2019-05-29T10:48:13.104Z,1.60
2019-05-29T10:50:42.116Z,2.10
2019-05-29T10:53:08.739Z,1.13
2019-05-29T10:55:35.438Z,1.50
2019-05-29T10:58:03.262Z,1.40
2019-05-29T11:00:29.896Z,1.10
2019-05-29T11:02:57.711Z,1.53
2019-05-29T11:05:24.934Z,1.50
2019-05-29T11:07:51.942Z,1.67
2019-05-29T11:10:18.799Z,0.93
2019-05-29T11:12:48.422Z,0.97
2019-05-29T11:15:21.372Z,0.80
2019-05-29T11:17:44.996Z,1.37
2019-05-29T11:20:12.164Z,0.90
2019-05-29T11:22:39.316Z,1.27
2019-05-29T11:25:22.072Z,1.10
2019-05-29T11:27:37.947Z,1.77
2019-05-29T11:30:04.954Z,1.13
2019-05-29T11:32:33.305Z,1.93
2019-05-29T11:35:02.226Z,1.00
2019-05-29T11:37:29.484Z,1.43
2019-05-29T11:39:56.841Z,0.87
2019-05-29T11:42:27.452Z,1.10
2019-05-29T11:44:53.608Z,1.50
2019-05-29T11:47:22.411Z,1.50
2019-05-29T11:49:49.428Z,1.43
2019-05-29T11:52:24.510Z,0.97
2019-05-29T11:54:45.964Z,0.90
2019-05-29T11:57:13.052Z,1.20
2019-05-29T11:59:40.219Z,0.90
2019-05-29T12:02:07.435Z,1.80
2019-05-29T12:04:35.091Z,4.00
2019-05-29T12:07:01.719Z,1.60
2019-05-29T12:09:32.622Z,1.50
2019-05-29T12:11:58.088Z,0.80
2019-05-29T12:14:25.210Z,1.23
2019-05-29T12:16:51.977Z,1.07
2019-05-29T12:19:18.637Z,1.10
2019-05-29T12:21:46.381Z,0.80
2019-05-29T12:24:13.325Z,0.80
2019-05-29T12:26:40.042Z,1.30
2019-05-29T12:29:11.443Z,1.23
2019-05-29T12:31:36.727Z,0.77
2019-05-29T12:34:16.480Z,1.03
2019-05-29T12:36:33.921Z,1.47
2019-05-29T12:39:02.171Z,0.83
2019-05-29T12:41:30.843Z,1.10
2019-05-29T12:43:58.019Z,1.37
2019-05-29T12:46:24.672Z,1.80
2019-05-29T12:48:53.320Z,0.97
2019-05-29T12:51:20.373Z,1.00
2019-05-29T12:53:47.350Z,1.00
2019-05-29T12:56:14.015Z,0.80
2019-05-29T12:58:40.647Z,0.80
2019-05-29T13:01:07.287Z,0.83
2019-05-29T13:03:34.436Z,0.90
2019-05-29T13:06:02.358Z,0.70
2019-05-29T13:08:31.645Z,0.90
2019-05-29T13:10:58.632Z,0.77
2019-05-29T13:13:27.357Z,1.30
2019-05-29T13:15:54.783Z,1.00
2019-05-29T13:18:22.529Z,1.00
2019-05-29T13:20:49.194Z,0.90
2019-05-29T13:23:15.936Z,1.40
2019-05-29T13:25:42.675Z,1.37
2019-05-29T13:28:10.567Z,0.80
2019-05-29T13:30:38.241Z,1.30
2019-05-29T13:33:07.436Z,1.07
2019-05-29T13:35:33.769Z,1.37
2019-05-29T13:38:01.452Z,1.33
2019-05-29T13:40:28.432Z,1.20
2019-05-29T13:42:56.266Z,0.80
2019-05-29T13:45:23.254Z,0.80
2019-05-29T13:47:50.613Z,1.13
2019-05-29T13:50:19.461Z,1.00
2019-05-29T13:52:46.464Z,0.80
2019-05-29T13:55:13.400Z,1.00
2019-05-29T13:57:40.401Z,1.17
2019-05-29T14:00:31.685Z,0.80
2019-05-29T14:02:40.799Z,1.00
2019-05-29T14:05:08.750Z,1.27
2019-05-29T14:07:35.815Z,0.60
2019-05-29T14:10:04.273Z,1.20
2019-05-29T14:12:31.653Z,1.27
2019-05-29T14:14:59.929Z,1.07
2019-05-29T14:17:26.763Z,1.03
2019-05-29T14:19:53.390Z,1.60
2019-05-29T14:22:21.032Z,0.90
2019-05-29T14:24:48.319Z,0.80
2019-05-29T14:27:14.955Z,1.00
2019-05-29T14:29:42.007Z,1.10
2019-05-29T14:32:09.264Z,0.63
2019-05-29T14:34:38.968Z,1.53
2019-05-29T14:37:06.236Z,1.03
2019-05-29T14:39:36.103Z,1.00
2019-05-29T14:42:04.338Z,1.07
2019-05-29T14:44:31.875Z,0.80
2019-05-29T14:46:58.756Z,0.80
2019-05-29T14:49:29.747Z,0.90
2019-05-29T14:51:56.392Z,1.20
2019-05-29T14:54:40.291Z,1.47
2019-05-29T14:56:54.033Z,1.30
2019-05-29T14:59:22.033Z,0.90
2019-05-29T15:01:51.562Z,0.90
2019-05-29T15:04:19.005Z,0.93
2019-05-29T15:06:45.967Z,1.40
2019-05-29T15:09:13.887Z,1.30
2019-05-29T15:11:41.060Z,1.00
2019-05-29T15:14:08.109Z,1.00
2019-05-29T15:16:35.261Z,1.03
2019-05-29T15:19:04.948Z,0.90
2019-05-29T15:21:32.179Z,1.00
2019-05-29T15:23:59.108Z,0.77
2019-05-29T15:26:26.211Z,1.17
2019-05-29T15:28:54.801Z,0.83
2019-05-29T15:31:22.354Z,1.10
2019-05-29T15:33:48.998Z,0.70
2019-05-29T15:36:17.009Z,0.80
2019-05-29T15:38:44.827Z,0.63
2019-05-29T15:41:12.778Z,0.87
2019-05-29T15:43:40.163Z,0.83
2019-05-29T15:46:10.499Z,1.20
2019-05-29T15:48:39.472Z,0.80
2019-05-29T15:51:06.909Z,1.07
2019-05-29T15:53:33.975Z,1.37
2019-05-29T15:56:16.753Z,1.00
2019-05-29T15:58:32.216Z,0.90
2019-05-29T16:01:01.055Z,1.00
2019-05-29T16:03:29.152Z,1.27
2019-05-29T16:05:56.931Z,1.00
2019-05-29T16:08:26.458Z,1.00
2019-05-29T16:10:54.175Z,0.90
2019-05-29T16:13:24.236Z,1.07
2019-05-29T16:15:50.946Z,1.10
2019-05-29T16:18:26.606Z,0.93
2019-05-29T16:20:52.287Z,1.30
2019-05-29T16:23:33.498Z,1.20
2019-05-29T16:25:52.324Z,0.87
2019-05-29T16:28:22.775Z,1.00
2019-05-29T16:30:49.888Z,1.07
2019-05-29T16:33:23.334Z,1.10
2019-05-29T16:35:53.322Z,0.70
2019-05-29T16:38:21.885Z,1.10
2019-05-29T16:40:49.498Z,1.10
2019-05-29T16:43:16.494Z,0.90
2019-05-29T16:45:43.358Z,0.80
2019-05-29T16:48:10.691Z,1.00
2019-05-29T16:50:38.451Z,0.60
2019-05-29T16:53:05.074Z,0.70
2019-05-29T16:55:31.884Z,1.00
2019-05-29T16:58:02.809Z,1.30
2019-05-29T17:00:29.870Z,0.80
2019-05-29T17:02:57.725Z,0.93
2019-05-29T17:05:24.499Z,1.17
2019-05-29T17:07:52.195Z,0.60
2019-05-29T17:10:22.490Z,0.87
2019-05-29T17:12:49.459Z,0.90
2019-05-29T17:15:17.140Z,0.70
2019-05-29T17:17:44.120Z,1.00
2019-05-29T17:20:11.109Z,1.10
2019-05-29T17:22:38.672Z,0.90
2019-05-29T17:25:06.893Z,1.80
2019-05-29T17:27:33.569Z,0.97
2019-05-29T17:30:01.250Z,1.13
2019-05-29T17:32:28.344Z,0.90
2019-05-29T17:34:55.136Z,1.70
2019-05-29T17:37:23.037Z,0.90
2019-05-29T17:39:49.916Z,0.83
2019-05-29T17:42:16.669Z,1.67
2019-05-29T17:44:43.299Z,1.57
2019-05-29T17:47:10.020Z,0.83
2019-05-29T17:49:37.374Z,1.40
2019-05-29T17:52:04.472Z,0.80
2019-05-29T17:54:34.539Z,1.20
2019-05-29T17:57:03.142Z,1.20
2019-05-29T17:59:30.898Z,1.33
2019-05-29T18:01:58.676Z,1.10
2019-05-29T18:04:26.629Z,1.37
2019-05-29T18:06:56.507Z,0.93
2019-05-29T18:09:26.030Z,1.60
2019-05-29T18:11:52.115Z,0.80
2019-05-29T18:14:19.881Z,1.97
2019-05-29T18:16:46.678Z,1.80
2019-05-29T18:19:13.892Z,1.43
2019-05-29T18:21:40.634Z,1.10
2019-05-29T18:24:07.705Z,1.00
2019-05-29T18:26:45.982Z,0.90
2019-05-29T18:29:03.295Z,1.07
2019-05-29T18:31:29.963Z,0.90
2019-05-29T18:33:58.091Z,1.20
2019-05-29T18:36:25.366Z,0.90
2019-05-29T18:38:52.564Z,1.00
2019-05-29T18:41:20.180Z,1.17
2019-05-29T18:43:46.895Z,1.53
2019-05-29T18:46:15.709Z,0.70
2019-05-29T18:48:42.724Z,0.93
2019-05-29T18:51:09.347Z,0.87
2019-05-29T18:53:36.152Z,1.07
2019-05-29T18:56:02.802Z,0.63
2019-05-29T18:58:30.687Z,1.10
2019-05-29T19:00:57.964Z,0.50
2019-05-29T19:03:25.376Z,0.83
2019-05-29T19:05:52.263Z,1.10
2019-05-29T19:08:19.461Z,0.90
2019-05-29T19:10:46.459Z,1.43
2019-05-29T19:13:16.043Z,1.00
2019-05-29T19:15:45.611Z,0.80
2019-05-29T19:18:13.239Z,1.40
2019-05-29T19:20:40.968Z,1.20
2019-05-29T19:23:09.554Z,1.30
2019-05-29T19:25:36.879Z,1.63
2019-05-29T19:28:07.688Z,2.17
2019-05-29T19:30:34.960Z,1.80
2019-05-29T19:33:02.372Z,2.17
2019-05-29T19:35:31.739Z,2.17
2019-05-29T19:37:58.702Z,2.73
2019-05-29T19:40:26.460Z,3.87
2019-05-29T19:42:54.759Z,3.50
2019-05-29T19:45:24.648Z,4.30
2019-05-29T19:47:52.079Z,5.50
2019-05-29T19:50:19.763Z,6.00
2019-05-29T19:52:46.529Z,6.20
2019-05-29T19:55:13.965Z,8.20
2019-05-29T19:57:55.090Z,6.23
2019-05-29T20:00:09.851Z,4.50
2019-05-29T20:02:37.611Z,4.80
2019-05-29T20:05:05.767Z,4.60
2019-05-29T20:07:35.183Z,4.20
2019-05-29T20:10:03.771Z,3.60
2019-05-29T20:12:31.592Z,2.93
2019-05-29T20:14:58.712Z,3.53
2019-05-29T20:17:25.371Z,3.13
2019-05-29T20:19:55.813Z,2.87
2019-05-29T20:22:28.459Z,2.80
2019-05-29T20:24:59.589Z,2.67
2019-05-29T20:27:26.604Z,2.63
2019-05-29T20:29:53.383Z,2.27
2019-05-29T20:32:20.027Z,2.80
2019-05-29T20:34:48.393Z,2.33
2019-05-29T20:37:15.073Z,2.73
2019-05-29T20:39:42.552Z,3.00
2019-05-29T20:42:09.324Z,4.00
2019-05-29T20:44:37.255Z,3.60
2019-05-29T20:47:04.206Z,2.80
2019-05-29T20:49:31.880Z,3.73
2019-05-29T20:51:59.947Z,3.07
2019-05-29T20:54:29.235Z,2.70
2019-05-29T20:56:55.876Z,3.50
2019-05-29T20:59:23.713Z,3.37
2019-05-29T21:01:51.469Z,3.77
2019-05-29T21:04:18.605Z,3.20
2019-05-29T21:06:46.468Z,3.07
2019-05-29T21:09:14.653Z,4.80
2019-05-29T21:11:43.578Z,5.40
2019-05-29T21:14:12.984Z,6.67
2019-05-29T21:16:39.839Z,6.37
2019-05-29T21:19:08.126Z,5.50
2019-05-29T21:21:36.291Z,4.87
2019-05-29T21:24:03.117Z,5.27
2019-05-29T21:26:36.990Z,5.53
2019-05-29T21:29:06.125Z,4.20
2019-05-29T21:31:33.139Z,4.10
2019-05-29T21:34:00.416Z,3.60
2019-05-29T21:36:27.105Z,3.87
2019-05-29T21:38:55.962Z,4.53
2019-05-29T21:41:22.598Z,4.67
2019-05-29T21:43:49.736Z,4.20
2019-05-29T21:46:17.090Z,4.07
2019-05-29T21:48:45.106Z,4.43
2019-05-29T21:51:14.013Z,3.97
2019-05-29T21:53:41.800Z,3.77
2019-05-29T21:56:08.715Z,3.80
2019-05-29T21:58:35.659Z,3.33
2019-05-29T22:01:05.004Z,2.80
2019-05-29T22:03:33.603Z,2.80
2019-05-29T22:06:00.420Z,2.90
2019-05-29T22:08:27.491Z,2.73
2019-05-29T22:10:55.530Z,2.97
2019-05-29T22:13:22.423Z,2.70
2019-05-29T22:15:50.552Z,2.43
2019-05-29T22:18:17.430Z,2.20
2019-05-29T22:20:45.632Z,2.60
2019-05-29T22:23:12.280Z,2.80
2019-05-29T22:25:40.001Z,2.90
2019-05-29T22:28:06.655Z,3.10
2019-05-29T22:30:34.695Z,2.63
2019-05-29T22:33:05.546Z,2.70
2019-05-29T22:35:32.987Z,3.20
2019-05-29T22:38:00.046Z,2.80
2019-05-29T22:40:26.997Z,2.63
2019-05-29T22:42:55.983Z,2.40
2019-05-29T22:45:24.739Z,2.70
2019-05-29T22:47:54.165Z,3.37
2019-05-29T22:50:21.319Z,2.80
2019-05-29T22:52:48.877Z,2.63
2019-05-29T22:55:15.699Z,2.40
2019-05-29T22:57:47.066Z,3.10
2019-05-29T23:00:16.223Z,3.00
2019-05-29T23:02:43.395Z,3.30
2019-05-29T23:05:10.336Z,3.40
2019-05-29T23:07:40.681Z,2.67
2019-05-29T23:10:07.803Z,2.70
2019-05-29T23:12:35.491Z,2.87
2019-05-29T23:15:02.936Z,3.30
2019-05-29T23:17:33.430Z,4.03
2019-05-29T23:20:00.744Z,2.83
2019-05-29T23:22:27.600Z,2.13
2019-05-29T23:24:54.882Z,2.30
2019-05-29T23:27:21.599Z,3.03
2019-05-29T23:29:49.649Z,2.37
2019-05-29T23:32:16.636Z,2.27
2019-05-29T23:34:44.768Z,1.80
2019-05-29T23:37:13.845Z,2.43
2019-05-29T23:39:40.763Z,2.70
2019-05-29T23:42:07.378Z,1.97
2019-05-29T23:44:35.391Z,3.50
2019-05-29T23:47:03.966Z,3.10
2019-05-29T23:49:30.875Z,2.20
2019-05-29T23:51:57.617Z,1.83
2019-05-29T23:54:24.299Z,2.10
2019-05-29T23:56:51.043Z,2.03
2019-05-29T23:59:18.248Z,1.93
